Portada
METAR-TAF:

METAR-TAF

Aeroports :

Xi'an, Xina

latitud: 34-26N, longitud: 108-45E, altitud: 479 m

Observació

L'informe es va fer fa 1 hora i 13 minuts, a les 01:00 UTC
Vent 2 kt amb direcció variable
Temperatura -4°C
Humitat 100%
Pressió 1024 hPa
Visibilitat: 2200 m
boirina

METAR: ZLXY 280100Z VRB01MPS 2200 BR NSC M04/M04 Q1024 BECMG TL0240 3000

Hora: 10:13 (02:13 UTC)

Pronòstic

L'informe es va fer fa 5 hores i 7 minuts, a les 21:06 UTC
Pronòstic vàlid del 28 a les 00 UTC al 28 a les 24 UTC
Vent 6 kt del Oest/Sud-Oest
Visibilitat: 3000 m
calitja

TAF: ZLXY 272106Z 2800/2824 24003MPS 3000 HZ NSC TX08/2807Z TNM05/2800Z

Observacions i pronòstics meteorològics de més de 4000 aeroports (METAR i TAF).

Les estacions disponibles són els punts grocs i vermells al mapa.

Posi el ratolí al punt desitjat per veure el nom de l'estació.

Feu clic per veure les observacions i els pronòstics meteorològics.

Per canviar el mapa: feu clic els botons verds amb una creu de color negre per apropar; al botó verd amb un guió per allunyar la imatge; o en les fletxes verdes per a mapes adjacents.


METAR-TAF: